sensor_id;sensor_type;location;lat;lon;timestamp;P1;durP1;ratioP1;P2;durP2;ratioP2
6223;SDS011;3145;42.726;23.342;2024-02-15T00:02:14;18.17;;;14.67;;
6223;SDS011;3145;42.726;23.342;2024-02-15T00:04:42;19.80;;;14.37;;
6223;SDS011;3145;42.726;23.342;2024-02-15T00:07:09;15.23;;;13.73;;
6223;SDS011;3145;42.726;23.342;2024-02-15T00:09:36;15.30;;;13.70;;
6223;SDS011;3145;42.726;23.342;2024-02-15T00:12:03;16.13;;;14.07;;
6223;SDS011;3145;42.726;23.342;2024-02-15T00:14:30;15.13;;;13.60;;
6223;SDS011;3145;42.726;23.342;2024-02-15T00:16:57;15.53;;;13.57;;
6223;SDS011;3145;42.726;23.342;2024-02-15T00:19:24;16.00;;;14.43;;
6223;SDS011;3145;42.726;23.342;2024-02-15T00:21:56;17.50;;;13.80;;
6223;SDS011;3145;42.726;23.342;2024-02-15T00:24:23;16.40;;;13.97;;
6223;SDS011;3145;42.726;23.342;2024-02-15T00:26:50;15.47;;;13.60;;
6223;SDS011;3145;42.726;23.342;2024-02-15T00:29:16;15.30;;;13.70;;
6223;SDS011;3145;42.726;23.342;2024-02-15T00:31:43;17.53;;;14.30;;
6223;SDS011;3145;42.726;23.342;2024-02-15T00:34:09;15.80;;;13.50;;
6223;SDS011;3145;42.726;23.342;2024-02-15T00:36:36;17.97;;;13.97;;
6223;SDS011;3145;42.726;23.342;2024-02-15T00:39:04;14.40;;;12.90;;
6223;SDS011;3145;42.726;23.342;2024-02-15T00:41:31;15.30;;;13.70;;
6223;SDS011;3145;42.726;23.342;2024-02-15T00:43:58;15.63;;;13.33;;
6223;SDS011;3145;42.726;23.342;2024-02-15T00:46:25;14.77;;;13.23;;
6223;SDS011;3145;42.726;23.342;2024-02-15T00:48:54;15.47;;;13.30;;
6223;SDS011;3145;42.726;23.342;2024-02-15T00:51:20;14.37;;;12.80;;
6223;SDS011;3145;42.726;23.342;2024-02-15T00:53:47;14.67;;;13.10;;
6223;SDS011;3145;42.726;23.342;2024-02-15T00:56:15;15.17;;;13.10;;
6223;SDS011;3145;42.726;23.342;2024-02-15T00:58:42;15.33;;;13.77;;
6223;SDS011;3145;42.726;23.342;2024-02-15T01:01:09;15.53;;;12.63;;
6223;SDS011;3145;42.726;23.342;2024-02-15T01:03:36;14.50;;;13.00;;
6223;SDS011;3145;42.726;23.342;2024-02-15T01:06:03;14.43;;;12.80;;
6223;SDS011;3145;42.726;23.342;2024-02-15T01:08:30;17.93;;;13.83;;
6223;SDS011;3145;42.726;23.342;2024-02-15T01:10:57;14.67;;;12.50;;
6223;SDS011;3145;42.726;23.342;2024-02-15T01:13:26;14.67;;;13.20;;
6223;SDS011;3145;42.726;23.342;2024-02-15T01:15:52;15.80;;;12.77;;
6223;SDS011;3145;42.726;23.342;2024-02-15T01:18:20;15.80;;;13.60;;
6223;SDS011;3145;42.726;23.342;2024-02-15T01:20:46;15.03;;;13.53;;
6223;SDS011;3145;42.726;23.342;2024-02-15T01:23:13;15.23;;;13.00;;
6223;SDS011;3145;42.726;23.342;2024-02-15T01:25:40;14.67;;;13.17;;
6223;SDS011;3145;42.726;23.342;2024-02-15T01:28:06;14.53;;;13.03;;
6223;SDS011;3145;42.726;23.342;2024-02-15T01:30:34;15.30;;;13.70;;
6223;SDS011;3145;42.726;23.342;2024-02-15T01:33:01;17.87;;;13.37;;
6223;SDS011;3145;42.726;23.342;2024-02-15T01:35:28;14.00;;;12.53;;
6223;SDS011;3145;42.726;23.342;2024-02-15T01:37:54;15.10;;;12.77;;
6223;SDS011;3145;42.726;23.342;2024-02-15T01:40:21;15.50;;;13.63;;
6223;SDS011;3145;42.726;23.342;2024-02-15T01:42:48;16.57;;;13.47;;
6223;SDS011;3145;42.726;23.342;2024-02-15T01:45:15;13.73;;;12.33;;
6223;SDS011;3145;42.726;23.342;2024-02-15T01:47:43;16.20;;;12.93;;
6223;SDS011;3145;42.726;23.342;2024-02-15T01:50:10;15.80;;;14.10;;
6223;SDS011;3145;42.726;23.342;2024-02-15T01:52:38;17.33;;;13.77;;
6223;SDS011;3145;42.726;23.342;2024-02-15T01:55:07;16.60;;;13.00;;
6223;SDS011;3145;42.726;23.342;2024-02-15T01:57:35;14.53;;;13.03;;
6223;SDS011;3145;42.726;23.342;2024-02-15T02:00:03;16.40;;;13.47;;
6223;SDS011;3145;42.726;23.342;2024-02-15T02:02:31;15.40;;;13.43;;
6223;SDS011;3145;42.726;23.342;2024-02-15T02:05:01;17.43;;;13.00;;
6223;SDS011;3145;42.726;23.342;2024-02-15T02:07:28;15.57;;;12.57;;
6223;SDS011;3145;42.726;23.342;2024-02-15T02:09:55;14.07;;;12.57;;
6223;SDS011;3145;42.726;23.342;2024-02-15T02:12:22;14.67;;;12.73;;
6223;SDS011;3145;42.726;23.342;2024-02-15T02:14:50;17.00;;;13.10;;
6223;SDS011;3145;42.726;23.342;2024-02-15T02:17:16;14.50;;;13.00;;
6223;SDS011;3145;42.726;23.342;2024-02-15T02:19:45;19.77;;;14.37;;
6223;SDS011;3145;42.726;23.342;2024-02-15T02:22:16;17.47;;;13.70;;
6223;SDS011;3145;42.726;23.342;2024-02-15T02:24:54;19.93;;;14.00;;
6223;SDS011;3145;42.726;23.342;2024-02-15T02:27:23;18.13;;;13.80;;
6223;SDS011;3145;42.726;23.342;2024-02-15T02:29:52;20.17;;;14.47;;
6223;SDS011;3145;42.726;23.342;2024-02-15T02:32:19;15.00;;;13.37;;
6223;SDS011;3145;42.726;23.342;2024-02-15T02:34:46;17.27;;;14.27;;
6223;SDS011;3145;42.726;23.342;2024-02-15T02:37:13;13.40;;;12.17;;
6223;SDS011;3145;42.726;23.342;2024-02-15T02:39:39;17.90;;;14.03;;
6223;SDS011;3145;42.726;23.342;2024-02-15T02:42:09;16.23;;;13.83;;
6223;SDS011;3145;42.726;23.342;2024-02-15T02:44:36;16.87;;;13.33;;
6223;SDS011;3145;42.726;23.342;2024-02-15T02:47:02;16.30;;;13.53;;
6223;SDS011;3145;42.726;23.342;2024-02-15T02:49:29;14.53;;;12.97;;
6223;SDS011;3145;42.726;23.342;2024-02-15T02:51:56;17.63;;;13.67;;
6223;SDS011;3145;42.726;23.342;2024-02-15T02:54:23;18.87;;;13.93;;
6223;SDS011;3145;42.726;23.342;2024-02-15T02:56:50;15.30;;;13.70;;
6223;SDS011;3145;42.726;23.342;2024-02-15T02:59:18;15.93;;;14.23;;
6223;SDS011;3145;42.726;23.342;2024-02-15T03:01:44;16.00;;;14.30;;
6223;SDS011;3145;42.726;23.342;2024-02-15T03:04:11;17.03;;;13.20;;
6223;SDS011;3145;42.726;23.342;2024-02-15T03:06:42;18.03;;;14.53;;
6223;SDS011;3145;42.726;23.342;2024-02-15T03:09:08;16.27;;;14.03;;
6223;SDS011;3145;42.726;23.342;2024-02-15T03:11:35;23.27;;;15.20;;
6223;SDS011;3145;42.726;23.342;2024-02-15T03:14:03;21.93;;;14.93;;
6223;SDS011;3145;42.726;23.342;2024-02-15T03:16:31;19.27;;;14.43;;
6223;SDS011;3145;42.726;23.342;2024-02-15T03:18:58;18.10;;;14.40;;
6223;SDS011;3145;42.726;23.342;2024-02-15T03:21:27;16.47;;;14.40;;
6223;SDS011;3145;42.726;23.342;2024-02-15T03:23:54;20.57;;;15.43;;
6223;SDS011;3145;42.726;23.342;2024-02-15T03:26:28;19.03;;;14.90;;
6223;SDS011;3145;42.726;23.342;2024-02-15T03:28:56;16.37;;;14.67;;
6223;SDS011;3145;42.726;23.342;2024-02-15T03:31:22;22.23;;;14.90;;
6223;SDS011;3145;42.726;23.342;2024-02-15T03:33:51;19.93;;;15.57;;
6223;SDS011;3145;42.726;23.342;2024-02-15T03:36:19;22.10;;;15.77;;
6223;SDS011;3145;42.726;23.342;2024-02-15T03:38:46;19.67;;;15.13;;
6223;SDS011;3145;42.726;23.342;2024-02-15T03:41:13;20.53;;;14.53;;
6223;SDS011;3145;42.726;23.342;2024-02-15T03:43:40;19.30;;;15.27;;
6223;SDS011;3145;42.726;23.342;2024-02-15T03:46:06;17.20;;;14.00;;
6223;SDS011;3145;42.726;23.342;2024-02-15T03:48:37;18.70;;;15.20;;
6223;SDS011;3145;42.726;23.342;2024-02-15T03:51:05;16.93;;;14.30;;
6223;SDS011;3145;42.726;23.342;2024-02-15T03:53:32;18.07;;;13.70;;
6223;SDS011;3145;42.726;23.342;2024-02-15T03:56:02;20.63;;;15.43;;
6223;SDS011;3145;42.726;23.342;2024-02-15T03:58:29;23.20;;;15.87;;
6223;SDS011;3145;42.726;23.342;2024-02-15T04:00:58;19.53;;;15.93;;
6223;SDS011;3145;42.726;23.342;2024-02-15T04:03:25;20.00;;;15.03;;
6223;SDS011;3145;42.726;23.342;2024-02-15T04:05:52;18.80;;;15.87;;
6223;SDS011;3145;42.726;23.342;2024-02-15T04:08:21;18.23;;;15.77;;
6223;SDS011;3145;42.726;23.342;2024-02-15T04:10:48;25.60;;;16.37;;
6223;SDS011;3145;42.726;23.342;2024-02-15T04:13:14;18.77;;;15.00;;
6223;SDS011;3145;42.726;23.342;2024-02-15T04:15:41;19.50;;;14.90;;
6223;SDS011;3145;42.726;23.342;2024-02-15T04:18:08;17.63;;;14.40;;
6223;SDS011;3145;42.726;23.342;2024-02-15T04:20:36;19.13;;;16.00;;
6223;SDS011;3145;42.726;23.342;2024-02-15T04:23:02;20.63;;;15.27;;
6223;SDS011;3145;42.726;23.342;2024-02-15T04:25:31;18.93;;;15.27;;
6223;SDS011;3145;42.726;23.342;2024-02-15T04:27:58;18.27;;;15.03;;
6223;SDS011;3145;42.726;23.342;2024-02-15T04:30:28;18.33;;;14.80;;
6223;SDS011;3145;42.726;23.342;2024-02-15T04:32:55;22.23;;;15.70;;
6223;SDS011;3145;42.726;23.342;2024-02-15T04:35:22;19.47;;;16.07;;
6223;SDS011;3145;42.726;23.342;2024-02-15T04:37:49;19.70;;;15.20;;
6223;SDS011;3145;42.726;23.342;2024-02-15T04:40:18;19.53;;;15.53;;
6223;SDS011;3145;42.726;23.342;2024-02-15T04:42:46;19.77;;;15.30;;
6223;SDS011;3145;42.726;23.342;2024-02-15T04:45:13;20.57;;;15.23;;
6223;SDS011;3145;42.726;23.342;2024-02-15T04:47:40;20.63;;;15.70;;
6223;SDS011;3145;42.726;23.342;2024-02-15T04:50:07;19.33;;;15.03;;
6223;SDS011;3145;42.726;23.342;2024-02-15T04:52:35;19.67;;;15.03;;
6223;SDS011;3145;42.726;23.342;2024-02-15T04:55:02;18.40;;;14.80;;
6223;SDS011;3145;42.726;23.342;2024-02-15T04:57:30;19.37;;;14.70;;
6223;SDS011;3145;42.726;23.342;2024-02-15T05:00:00;20.00;;;14.73;;
6223;SDS011;3145;42.726;23.342;2024-02-15T05:02:26;16.87;;;14.93;;
6223;SDS011;3145;42.726;23.342;2024-02-15T05:04:53;25.27;;;15.10;;
6223;SDS011;3145;42.726;23.342;2024-02-15T05:07:21;22.43;;;16.33;;
6223;SDS011;3145;42.726;23.342;2024-02-15T05:09:48;19.80;;;15.30;;
6223;SDS011;3145;42.726;23.342;2024-02-15T05:12:21;24.17;;;15.17;;
6223;SDS011;3145;42.726;23.342;2024-02-15T05:14:48;19.30;;;15.93;;
6223;SDS011;3145;42.726;23.342;2024-02-15T05:17:17;20.63;;;15.20;;
6223;SDS011;3145;42.726;23.342;2024-02-15T05:19:43;19.83;;;14.83;;
6223;SDS011;3145;42.726;23.342;2024-02-15T05:22:11;19.13;;;15.07;;
6223;SDS011;3145;42.726;23.342;2024-02-15T05:24:38;25.30;;;16.03;;
6223;SDS011;3145;42.726;23.342;2024-02-15T05:27:05;20.40;;;15.87;;
6223;SDS011;3145;42.726;23.342;2024-02-15T05:29:32;22.23;;;15.37;;
6223;SDS011;3145;42.726;23.342;2024-02-15T05:32:01;20.53;;;15.93;;
6223;SDS011;3145;42.726;23.342;2024-02-15T05:34:29;27.90;;;18.07;;
6223;SDS011;3145;42.726;23.342;2024-02-15T05:36:56;30.60;;;19.30;;
6223;SDS011;3145;42.726;23.342;2024-02-15T05:39:22;18.13;;;15.47;;
6223;SDS011;3145;42.726;23.342;2024-02-15T05:41:50;22.27;;;15.97;;
6223;SDS011;3145;42.726;23.342;2024-02-15T05:44:17;20.60;;;15.10;;
6223;SDS011;3145;42.726;23.342;2024-02-15T05:46:45;21.93;;;14.93;;
6223;SDS011;3145;42.726;23.342;2024-02-15T05:49:13;19.33;;;14.67;;
6223;SDS011;3145;42.726;23.342;2024-02-15T05:51:43;20.13;;;16.00;;
6223;SDS011;3145;42.726;23.342;2024-02-15T05:54:12;26.17;;;16.43;;
6223;SDS011;3145;42.726;23.342;2024-02-15T05:56:41;23.43;;;15.10;;
6223;SDS011;3145;42.726;23.342;2024-02-15T05:59:08;25.33;;;16.47;;
6223;SDS011;3145;42.726;23.342;2024-02-15T06:01:36;17.87;;;14.83;;
6223;SDS011;3145;42.726;23.342;2024-02-15T06:04:04;19.67;;;15.17;;
6223;SDS011;3145;42.726;23.342;2024-02-15T06:06:33;20.10;;;14.93;;
6223;SDS011;3145;42.726;23.342;2024-02-15T06:09:01;19.40;;;14.30;;
6223;SDS011;3145;42.726;23.342;2024-02-15T06:11:29;19.77;;;15.17;;
6223;SDS011;3145;42.726;23.342;2024-02-15T06:13:56;27.57;;;16.20;;
6223;SDS011;3145;42.726;23.342;2024-02-15T06:16:23;23.20;;;16.17;;
6223;SDS011;3145;42.726;23.342;2024-02-15T06:18:50;21.33;;;15.83;;
6223;SDS011;3145;42.726;23.342;2024-02-15T06:21:17;25.23;;;16.83;;
6223;SDS011;3145;42.726;23.342;2024-02-15T06:23:45;25.23;;;17.53;;
6223;SDS011;3145;42.726;23.342;2024-02-15T06:26:14;24.13;;;17.80;;
6223;SDS011;3145;42.726;23.342;2024-02-15T06:28:42;29.27;;;18.67;;
6223;SDS011;3145;42.726;23.342;2024-02-15T06:31:26;28.53;;;18.57;;
6223;SDS011;3145;42.726;23.342;2024-02-15T06:34:10;18.70;;;15.73;;
6223;SDS011;3145;42.726;23.342;2024-02-15T06:36:59;20.53;;;15.87;;
6223;SDS011;3145;42.726;23.342;2024-02-15T06:39:43;21.03;;;16.27;;
6223;SDS011;3145;42.726;23.342;2024-02-15T06:42:12;21.27;;;16.03;;
6223;SDS011;3145;42.726;23.342;2024-02-15T06:44:41;24.97;;;17.03;;
6223;SDS011;3145;42.726;23.342;2024-02-15T06:47:08;22.27;;;15.90;;
6223;SDS011;3145;42.726;23.342;2024-02-15T06:49:36;24.50;;;15.67;;
6223;SDS011;3145;42.726;23.342;2024-02-15T06:52:05;21.27;;;15.83;;
6223;SDS011;3145;42.726;23.342;2024-02-15T06:54:32;25.90;;;15.93;;
6223;SDS011;3145;42.726;23.342;2024-02-15T06:57:00;28.23;;;16.33;;
6223;SDS011;3145;42.726;23.342;2024-02-15T06:59:28;23.07;;;15.50;;
6223;SDS011;3145;42.726;23.342;2024-02-15T07:01:56;23.20;;;15.07;;
6223;SDS011;3145;42.726;23.342;2024-02-15T07:04:23;33.23;;;15.13;;
6223;SDS011;3145;42.726;23.342;2024-02-15T07:06:50;27.33;;;16.10;;
6223;SDS011;3145;42.726;23.342;2024-02-15T07:09:19;19.47;;;14.53;;
6223;SDS011;3145;42.726;23.342;2024-02-15T07:11:48;23.33;;;15.00;;
6223;SDS011;3145;42.726;23.342;2024-02-15T07:14:15;18.43;;;14.37;;
6223;SDS011;3145;42.726;23.342;2024-02-15T07:16:45;20.47;;;15.87;;
6223;SDS011;3145;42.726;23.342;2024-02-15T07:19:12;18.73;;;14.93;;
6223;SDS011;3145;42.726;23.342;2024-02-15T07:21:39;20.10;;;14.97;;
6223;SDS011;3145;42.726;23.342;2024-02-15T07:24:06;18.23;;;14.07;;
6223;SDS011;3145;42.726;23.342;2024-02-15T07:26:33;18.63;;;14.33;;
6223;SDS011;3145;42.726;23.342;2024-02-15T07:29:01;14.13;;;12.63;;
6223;SDS011;3145;42.726;23.342;2024-02-15T07:31:31;17.10;;;13.50;;
6223;SDS011;3145;42.726;23.342;2024-02-15T07:34:00;19.93;;;13.63;;
6223;SDS011;3145;42.726;23.342;2024-02-15T07:36:28;17.40;;;13.10;;
6223;SDS011;3145;42.726;23.342;2024-02-15T07:38:55;17.60;;;14.53;;
6223;SDS011;3145;42.726;23.342;2024-02-15T07:41:25;18.03;;;13.37;;
6223;SDS011;3145;42.726;23.342;2024-02-15T07:43:53;14.60;;;12.63;;
6223;SDS011;3145;42.726;23.342;2024-02-15T07:46:20;19.07;;;13.37;;
6223;SDS011;3145;42.726;23.342;2024-02-15T07:48:47;17.17;;;13.13;;
6223;SDS011;3145;42.726;23.342;2024-02-15T07:51:16;16.70;;;12.87;;
6223;SDS011;3145;42.726;23.342;2024-02-15T07:53:44;14.57;;;11.03;;
6223;SDS011;3145;42.726;23.342;2024-02-15T07:56:11;12.47;;;11.17;;
6223;SDS011;3145;42.726;23.342;2024-02-15T07:58:38;13.37;;;11.50;;
6223;SDS011;3145;42.726;23.342;2024-02-15T08:01:07;13.33;;;11.47;;
6223;SDS011;3145;42.726;23.342;2024-02-15T08:03:34;12.33;;;9.80;;
6223;SDS011;3145;42.726;23.342;2024-02-15T08:06:01;13.37;;;10.80;;
6223;SDS011;3145;42.726;23.342;2024-02-15T08:08:32;15.37;;;11.67;;
6223;SDS011;3145;42.726;23.342;2024-02-15T08:11:01;14.30;;;11.17;;
6223;SDS011;3145;42.726;23.342;2024-02-15T08:13:28;12.57;;;11.23;;
6223;SDS011;3145;42.726;23.342;2024-02-15T08:15:55;12.70;;;10.53;;
6223;SDS011;3145;42.726;23.342;2024-02-15T08:18:22;13.07;;;10.77;;
6223;SDS011;3145;42.726;23.342;2024-02-15T08:20:49;12.97;;;11.53;;
6223;SDS011;3145;42.726;23.342;2024-02-15T08:23:16;12.43;;;11.07;;
6223;SDS011;3145;42.726;23.342;2024-02-15T08:25:44;15.37;;;11.07;;
6223;SDS011;3145;42.726;23.342;2024-02-15T08:28:11;16.80;;;10.97;;
6223;SDS011;3145;42.726;23.342;2024-02-15T08:30:38;15.47;;;11.37;;
6223;SDS011;3145;42.726;23.342;2024-02-15T08:33:05;13.40;;;10.50;;
6223;SDS011;3145;42.726;23.342;2024-02-15T08:35:31;12.60;;;10.53;;
6223;SDS011;3145;42.726;23.342;2024-02-15T08:37:58;10.63;;;9.33;;
6223;SDS011;3145;42.726;23.342;2024-02-15T08:40:25;16.77;;;11.87;;
6223;SDS011;3145;42.726;23.342;2024-02-15T08:42:54;13.73;;;10.93;;
6223;SDS011;3145;42.726;23.342;2024-02-15T08:45:20;15.03;;;12.13;;
6223;SDS011;3145;42.726;23.342;2024-02-15T08:47:47;16.87;;;11.03;;
6223;SDS011;3145;42.726;23.342;2024-02-15T08:50:18;12.77;;;10.27;;
6223;SDS011;3145;42.726;23.342;2024-02-15T08:52:47;12.77;;;10.20;;
6223;SDS011;3145;42.726;23.342;2024-02-15T08:55:14;14.43;;;10.50;;
6223;SDS011;3145;42.726;23.342;2024-02-15T08:57:42;12.47;;;10.80;;
6223;SDS011;3145;42.726;23.342;2024-02-15T09:00:11;18.37;;;11.30;;
6223;SDS011;3145;42.726;23.342;2024-02-15T09:02:41;15.80;;;10.57;;
6223;SDS011;3145;42.726;23.342;2024-02-15T09:05:08;13.10;;;10.57;;
6223;SDS011;3145;42.726;23.342;2024-02-15T09:07:34;13.13;;;11.30;;
6223;SDS011;3145;42.726;23.342;2024-02-15T09:10:02;13.50;;;10.10;;
6223;SDS011;3145;42.726;23.342;2024-02-15T09:12:28;11.27;;;10.17;;
6223;SDS011;3145;42.726;23.342;2024-02-15T09:14:56;13.43;;;11.50;;
6223;SDS011;3145;42.726;23.342;2024-02-15T09:17:24;14.47;;;10.10;;
6223;SDS011;3145;42.726;23.342;2024-02-15T09:19:51;12.63;;;10.00;;
6223;SDS011;3145;42.726;23.342;2024-02-15T09:22:19;11.27;;;9.10;;
6223;SDS011;3145;42.726;23.342;2024-02-15T09:24:46;12.70;;;9.23;;
6223;SDS011;3145;42.726;23.342;2024-02-15T09:27:13;11.37;;;9.87;;
6223;SDS011;3145;42.726;23.342;2024-02-15T09:29:40;10.83;;;8.87;;
6223;SDS011;3145;42.726;23.342;2024-02-15T09:32:07;11.10;;;9.70;;
6223;SDS011;3145;42.726;23.342;2024-02-15T09:34:35;14.47;;;9.47;;
6223;SDS011;3145;42.726;23.342;2024-02-15T09:37:02;10.00;;;9.10;;
6223;SDS011;3145;42.726;23.342;2024-02-15T09:39:30;10.33;;;8.40;;
6223;SDS011;3145;42.726;23.342;2024-02-15T09:41:57;11.33;;;9.73;;
6223;SDS011;3145;42.726;23.342;2024-02-15T09:44:24;10.93;;;9.27;;
6223;SDS011;3145;42.726;23.342;2024-02-15T09:46:56;15.80;;;9.70;;
6223;SDS011;3145;42.726;23.342;2024-02-15T09:49:30;12.07;;;10.77;;
6223;SDS011;3145;42.726;23.342;2024-02-15T09:52:04;11.17;;;9.20;;
6223;SDS011;3145;42.726;23.342;2024-02-15T09:54:33;12.00;;;9.30;;
6223;SDS011;3145;42.726;23.342;2024-02-15T09:57:02;10.90;;;9.03;;
6223;SDS011;3145;42.726;23.342;2024-02-15T09:59:30;9.87;;;8.87;;
6223;SDS011;3145;42.726;23.342;2024-02-15T10:02:02;11.00;;;9.07;;
6223;SDS011;3145;42.726;23.342;2024-02-15T10:04:29;9.93;;;8.90;;
6223;SDS011;3145;42.726;23.342;2024-02-15T10:06:57;11.43;;;8.70;;
6223;SDS011;3145;42.726;23.342;2024-02-15T10:09:24;11.13;;;8.33;;
6223;SDS011;3145;42.726;23.342;2024-02-15T10:11:55;10.47;;;9.37;;
6223;SDS011;3145;42.726;23.342;2024-02-15T10:14:23;12.00;;;10.40;;
6223;SDS011;3145;42.726;23.342;2024-02-15T10:16:51;14.20;;;9.43;;
6223;SDS011;3145;42.726;23.342;2024-02-15T10:19:19;9.60;;;8.60;;
6223;SDS011;3145;42.726;23.342;2024-02-15T10:21:50;8.47;;;7.67;;
6223;SDS011;3145;42.726;23.342;2024-02-15T10:24:21;10.40;;;7.60;;
6223;SDS011;3145;42.726;23.342;2024-02-15T10:26:49;8.90;;;8.10;;
6223;SDS011;3145;42.726;23.342;2024-02-15T10:29:16;10.23;;;8.40;;
6223;SDS011;3145;42.726;23.342;2024-02-15T10:31:52;9.60;;;8.33;;
6223;SDS011;3145;42.726;23.342;2024-02-15T10:34:20;9.20;;;8.37;;
6223;SDS011;3145;42.726;23.342;2024-02-15T10:36:47;11.53;;;9.53;;
6223;SDS011;3145;42.726;23.342;2024-02-15T10:39:15;8.70;;;7.90;;
6223;SDS011;3145;42.726;23.342;2024-02-15T10:41:47;10.47;;;8.53;;
6223;SDS011;3145;42.726;23.342;2024-02-15T10:44:18;12.47;;;8.70;;
6223;SDS011;3145;42.726;23.342;2024-02-15T10:46:46;9.53;;;8.07;;
6223;SDS011;3145;42.726;23.342;2024-02-15T10:49:16;8.70;;;7.70;;
6223;SDS011;3145;42.726;23.342;2024-02-15T10:51:44;9.27;;;7.63;;
6223;SDS011;3145;42.726;23.342;2024-02-15T10:54:15;8.27;;;7.47;;
6223;SDS011;3145;42.726;23.342;2024-02-15T10:56:51;14.70;;;7.47;;
6223;SDS011;3145;42.726;23.342;2024-02-15T10:59:22;9.87;;;7.80;;
6223;SDS011;3145;42.726;23.342;2024-02-15T11:01:57;7.90;;;7.13;;
6223;SDS011;3145;42.726;23.342;2024-02-15T11:04:25;8.03;;;7.30;;
6223;SDS011;3145;42.726;23.342;2024-02-15T11:06:57;12.53;;;8.00;;
6223;SDS011;3145;42.726;23.342;2024-02-15T11:09:26;8.53;;;7.73;;
6223;SDS011;3145;42.726;23.342;2024-02-15T11:11:56;8.57;;;7.70;;
6223;SDS011;3145;42.726;23.342;2024-02-15T11:14:23;9.70;;;8.80;;
6223;SDS011;3145;42.726;23.342;2024-02-15T11:16:54;9.27;;;8.47;;
6223;SDS011;3145;42.726;23.342;2024-02-15T11:19:41;12.03;;;6.87;;
6223;SDS011;3145;42.726;23.342;2024-02-15T11:22:11;12.77;;;9.07;;
6223;SDS011;3145;42.726;23.342;2024-02-15T11:24:45;9.33;;;7.87;;
6223;SDS011;3145;42.726;23.342;2024-02-15T11:27:15;9.97;;;8.63;;
6223;SDS011;3145;42.726;23.342;2024-02-15T11:29:52;9.20;;;8.30;;
6223;SDS011;3145;42.726;23.342;2024-02-15T11:32:40;9.00;;;8.10;;
6223;SDS011;3145;42.726;23.342;2024-02-15T11:35:09;8.47;;;7.67;;
6223;SDS011;3145;42.726;23.342;2024-02-15T11:37:49;7.30;;;6.77;;
6223;SDS011;3145;42.726;23.342;2024-02-15T11:40:18;27.23;;;9.27;;
6223;SDS011;3145;42.726;23.342;2024-02-15T11:42:49;11.43;;;7.73;;
6223;SDS011;3145;42.726;23.342;2024-02-15T11:45:16;8.60;;;7.73;;
6223;SDS011;3145;42.726;23.342;2024-02-15T11:47:46;10.93;;;7.73;;
6223;SDS011;3145;42.726;23.342;2024-02-15T11:50:15;8.87;;;8.07;;
6223;SDS011;3145;42.726;23.342;2024-02-15T11:52:43;8.73;;;7.77;;
6223;SDS011;3145;42.726;23.342;2024-02-15T11:55:10;9.93;;;8.30;;
6223;SDS011;3145;42.726;23.342;2024-02-15T11:57:38;10.83;;;7.83;;
6223;SDS011;3145;42.726;23.342;2024-02-15T12:00:21;8.37;;;7.60;;
6223;SDS011;3145;42.726;23.342;2024-02-15T12:03:07;9.80;;;8.30;;
6223;SDS011;3145;42.726;23.342;2024-02-15T12:05:51;10.00;;;8.33;;
6223;SDS011;3145;42.726;23.342;2024-02-15T12:08:36;9.27;;;7.67;;
6223;SDS011;3145;42.726;23.342;2024-02-15T12:11:20;9.97;;;8.33;;
6223;SDS011;3145;42.726;23.342;2024-02-15T12:14:04;8.67;;;7.87;;
6223;SDS011;3145;42.726;23.342;2024-02-15T12:16:59;10.27;;;9.27;;
6223;SDS011;3145;42.726;23.342;2024-02-15T12:19:47;9.23;;;8.27;;
6223;SDS011;3145;42.726;23.342;2024-02-15T12:22:17;9.93;;;8.10;;
6223;SDS011;3145;42.726;23.342;2024-02-15T12:24:52;14.17;;;8.03;;
6223;SDS011;3145;42.726;23.342;2024-02-15T12:27:20;9.83;;;8.43;;
6223;SDS011;3145;42.726;23.342;2024-02-15T12:29:52;8.80;;;8.03;;
6223;SDS011;3145;42.726;23.342;2024-02-15T12:32:24;9.47;;;8.07;;
6223;SDS011;3145;42.726;23.342;2024-02-15T12:34:52;8.77;;;7.50;;
6223;SDS011;3145;42.726;23.342;2024-02-15T12:37:21;8.80;;;7.73;;
6223;SDS011;3145;42.726;23.342;2024-02-15T12:39:48;8.63;;;7.77;;
6223;SDS011;3145;42.726;23.342;2024-02-15T12:42:16;7.63;;;6.93;;
6223;SDS011;3145;42.726;23.342;2024-02-15T12:44:44;7.50;;;6.80;;
6223;SDS011;3145;42.726;23.342;2024-02-15T12:47:18;9.53;;;7.77;;
6223;SDS011;3145;42.726;23.342;2024-02-15T12:49:48;8.13;;;7.37;;
6223;SDS011;3145;42.726;23.342;2024-02-15T12:55:10;10.60;;;8.60;;
6223;SDS011;3145;42.726;23.342;2024-02-15T12:57:38;8.03;;;7.33;;
6223;SDS011;3145;42.726;23.342;2024-02-15T13:00:07;9.10;;;8.23;;
6223;SDS011;3145;42.726;23.342;2024-02-15T13:02:42;12.17;;;9.17;;
6223;SDS011;3145;42.726;23.342;2024-02-15T13:05:11;9.50;;;7.17;;
6223;SDS011;3145;42.726;23.342;2024-02-15T13:07:38;10.20;;;8.03;;
6223;SDS011;3145;42.726;23.342;2024-02-15T13:10:05;9.23;;;8.13;;
6223;SDS011;3145;42.726;23.342;2024-02-15T13:12:33;8.30;;;7.50;;
6223;SDS011;3145;42.726;23.342;2024-02-15T13:15:01;11.40;;;8.17;;
6223;SDS011;3145;42.726;23.342;2024-02-15T13:17:30;9.37;;;8.20;;
6223;SDS011;3145;42.726;23.342;2024-02-15T13:19:56;14.03;;;8.60;;
6223;SDS011;3145;42.726;23.342;2024-02-15T13:22:30;11.20;;;7.97;;
6223;SDS011;3145;42.726;23.342;2024-02-15T13:24:59;10.60;;;8.13;;
6223;SDS011;3145;42.726;23.342;2024-02-15T13:27:28;8.60;;;7.70;;
6223;SDS011;3145;42.726;23.342;2024-02-15T13:29:55;8.97;;;7.30;;
6223;SDS011;3145;42.726;23.342;2024-02-15T13:32:21;8.27;;;7.43;;
6223;SDS011;3145;42.726;23.342;2024-02-15T13:34:48;11.93;;;7.57;;
6223;SDS011;3145;42.726;23.342;2024-02-15T13:37:17;9.70;;;7.93;;
6223;SDS011;3145;42.726;23.342;2024-02-15T13:39:47;10.67;;;8.33;;
6223;SDS011;3145;42.726;23.342;2024-02-15T13:42:14;10.57;;;7.57;;
6223;SDS011;3145;42.726;23.342;2024-02-15T13:44:42;8.40;;;7.60;;
6223;SDS011;3145;42.726;23.342;2024-02-15T13:47:08;12.80;;;7.90;;
6223;SDS011;3145;42.726;23.342;2024-02-15T13:49:36;9.40;;;7.83;;
6223;SDS011;3145;42.726;23.342;2024-02-15T13:52:04;11.13;;;7.97;;
6223;SDS011;3145;42.726;23.342;2024-02-15T13:54:31;7.37;;;6.70;;
6223;SDS011;3145;42.726;23.342;2024-02-15T13:57:00;8.17;;;7.23;;
6223;SDS011;3145;42.726;23.342;2024-02-15T13:59:27;8.23;;;7.43;;
6223;SDS011;3145;42.726;23.342;2024-02-15T14:01:55;12.23;;;8.03;;
6223;SDS011;3145;42.726;23.342;2024-02-15T14:04:21;9.17;;;7.53;;
6223;SDS011;3145;42.726;23.342;2024-02-15T14:06:48;10.73;;;7.43;;
6223;SDS011;3145;42.726;23.342;2024-02-15T14:09:15;11.07;;;8.07;;
6223;SDS011;3145;42.726;23.342;2024-02-15T14:11:42;8.20;;;7.40;;
6223;SDS011;3145;42.726;23.342;2024-02-15T14:14:11;8.97;;;7.20;;
6223;SDS011;3145;42.726;23.342;2024-02-15T14:16:37;8.17;;;7.37;;
6223;SDS011;3145;42.726;23.342;2024-02-15T14:19:04;9.47;;;8.53;;
6223;SDS011;3145;42.726;23.342;2024-02-15T14:21:31;8.70;;;7.90;;
6223;SDS011;3145;42.726;23.342;2024-02-15T14:24:04;11.03;;;7.83;;
6223;SDS011;3145;42.726;23.342;2024-02-15T14:26:33;11.50;;;8.13;;
6223;SDS011;3145;42.726;23.342;2024-02-15T14:29:01;12.03;;;8.33;;
6223;SDS011;3145;42.726;23.342;2024-02-15T14:31:29;9.57;;;7.90;;
6223;SDS011;3145;42.726;23.342;2024-02-15T14:34:14;10.33;;;8.07;;
6223;SDS011;3145;42.726;23.342;2024-02-15T14:36:42;8.33;;;7.50;;
6223;SDS011;3145;42.726;23.342;2024-02-15T14:39:10;8.43;;;7.67;;
6223;SDS011;3145;42.726;23.342;2024-02-15T14:41:39;10.43;;;8.40;;
6223;SDS011;3145;42.726;23.342;2024-02-15T14:44:08;13.00;;;7.77;;
6223;SDS011;3145;42.726;23.342;2024-02-15T14:46:39;8.10;;;7.40;;
6223;SDS011;3145;42.726;23.342;2024-02-15T14:49:06;10.23;;;8.07;;
6223;SDS011;3145;42.726;23.342;2024-02-15T14:51:33;10.80;;;8.80;;
6223;SDS011;3145;42.726;23.342;2024-02-15T14:54:02;9.53;;;8.63;;
6223;SDS011;3145;42.726;23.342;2024-02-15T14:56:29;9.50;;;7.73;;